ADDS METAR Data INFO
IDs: Format: Raw Decoded Include TAF

Data at: 1011 UTC 12 Dec 2017

KTRI 120953Z 23007KT 10SM BKN050 OVC100 05/02 A2977 RMK AO2 SLP071 T00500017 $
KTRI 120853Z 00000KT 10SM BKN140 01/00 A2978 RMK AO2 SLP076 T00110000 56015 $
KTRI 120753Z 00000KT 10SM BKN140 00/M01 A2979 RMK AO2 SLP082 T00001006 $
KTRI 120653Z 00000KT 10SM BKN140 M01/M01 A2979 RMK AO2 SLP082 T10061011 $
KTRI 120553Z 00000KT 10SM BKN140 00/M01 A2982 RMK AO2 SLP094 T00001011 10039 21011 58016 $
KTRI 120453Z 00000KT 10SM SCT160 00/M02 A2984 RMK AO2 SLP103 T00001017 401111067 $
KTRI 120353Z 00000KT 10SM FEW150 FEW200 M01/M02 A2986 RMK AO2 SLP108 T10061022 $
KTRI 120253Z 35003KT 10SM FEW180 01/M02 A2987 RMK AO2 SLP114 T00061017 56009 $
KTRI 120153Z 00000KT 10SM CLR 01/M02 A2988 RMK AO2 SLP118 T00061022 $
KTRI 120053Z 00000KT 10SM CLR 01/M02 A2988 RMK AO2 SLP122 T00111017 $
KTRI 112353Z 00000KT 10SM CLR 04/M02 A2990 RMK AO2 SLP127 T00391017 10111 20033 56017 $
KTRI 112253Z 00000KT 10SM CLR 07/M02 A2991 RMK AO2 SLP128 T00671017 $
KTRI 112153Z 20005KT 10SM CLR 09/M01 A2992 RMK AO2 SLP131 T00891011 $
KTRI 112053Z 23012KT 10SM CLR 11/M02 A2995 RMK AO2 SLP140 T01111017 56031 $
KTRI 111953Z 21006KT 10SM FEW050 FEW250 11/M01 A2998 RMK AO2 SLP148 T01061011 $
KTRI 111853Z 16005KT 10SM FEW041 FEW250 10/M01 A3001 RMK AO2 SLP160 T01001011 $
KTRI 111753Z 21005KT 10SM FEW250 08/M01 A3005 RMK AO2 SLP174 T00831011 10089 21067 58030 $
KTRI 111653Z 00000KT 10SM FEW250 06/M03 A3009 RMK AO2 SLP188 T00611028 $
KTRI 111553Z 00000KT 10SM FEW250 04/M03 A3012 RMK AO2 SLP200 T00441028 $
KTRI 111453Z VRB03KT 10SM FEW250 01/M03 A3014 RMK AO2 SLP210 T00111028 51005 $
KTRI 111353Z 00000KT 10SM FEW250 M03/M05 A3014 RMK AO2 SLP209 T10281050 $
KTRI 111253Z 00000KT 10SM FEW250 M06/M07 A3014 RMK AO2 SLP211 T10561067 $
KTRI 111153Z 00000KT 10SM CLR M06/M07 A3013 RMK AO2 SLP206 T10611072 11033 21067 55006 $
KTRI 111053Z 00000KT 10SM CLR M06/M07 A3012 RMK AO2 SLP205 T10561067 $
KTRI 110953Z 00000KT 10SM CLR M06/M07 A3014 RMK AO2 SLP209 T10561067 $
KTRI 110853Z 00000KT 10SM CLR M05/M06 A3015 RMK AO2 SLP211 T10501061 56005 $
KTRI 110753Z 00000KT 10SM CLR M04/M07 A3015 RMK AO2 SLP211 T10391067 $
KTRI 110653Z 36003KT 10SM CLR M04/M06 A3015 RMK AO2 SLP213 T10441061 $
KTRI 110553Z 00000KT 10SM CLR M04/M06 A3016 RMK AO2 SLP216 T10441061 10006 21044 50001 $
KTRI 110453Z 00000KT 10SM FEW100 M04/M06 A3017 RMK AO2 SLP219 T10441061 400391044 $
KTRI 110353Z 00000KT 10SM BKN110 M03/M07 A3017 RMK AO2 SLP218 T10331067 $
KTRI 110253Z 00000KT 10SM CLR M03/M06 A3016 RMK AO2 SLP216 T10281061 53014 $
KTRI 110153Z 00000KT 10SM CLR M01/M07 A3013 RMK AO2 SLP206 T10111067 $
KTRI 110053Z 24003KT 10SM CLR 00/M07 A3013 RMK AO2 SLP206 T00001072 $
KTRI 102353Z 21005KT 10SM FEW150 SCT240 00/M07 A3011 RMK AO2 SLP200 T00001072 10039 21006 55000 $
KTRI 102253Z 22006KT 10SM SCT200 00/M07 A3011 RMK AO2 SLP198 T00001072 $